Time;durP1;ratioP1;P1;durP2;ratioP2;P2;SDS_P1;SDS_P2;PMS_P1;PMS_P2;Temp;Humidity;BMP_temperature;BMP_pressure;BME280_temperature;BME280_humidity;BME280_pressure;Samples;Min_cycle;Max_cycle;Signal;HPM_P1;HPM_P2
2021/07/02 00:04:06;;;;;;;6.55;5.95;;;;;;;17.15;69.26;98272.68;512973;1089;103100;-42
2021/07/02 00:14:13;;;;;;;7.38;6.53;;;;;;;17.13;68.92;98287.40;513054;1089;103109;-41
2021/07/02 00:24:21;;;;;;;6.55;5.95;;;;;;;17.18;69.11;98285.47;512872;1089;103501;-42
2021/07/02 00:34:29;;;;;;;5.30;4.83;;;;;;;17.04;69.74;98281.88;512919;1089;103515;-42
2021/07/02 00:44:38;;;;;;;10.30;5.47;;;;;;;16.78;70.45;98277.78;512953;1089;103098;-42
2021/07/02 00:54:47;;;;;;;14.97;5.90;;;;;;;16.67;70.54;98271.73;512916;1088;103116;-41
2021/07/02 01:04:53;;;;;;;;;;;;;;;16.54;71.00;98275.77;514356;1089;103416;-42
2021/07/02 01:15:01;;;;;;;4.13;3.80;;;;;;;16.45;71.06;98284.64;514591;1089;103479;-42
2021/07/02 01:25:06;;;;;;;4.53;3.30;;;;;;;16.39;71.57;98286.55;514260;1088;103484;-41
2021/07/02 01:35:14;;;;;;;4.00;3.33;;;;;;;16.34;71.39;98277.78;514486;1089;103423;-42
2021/07/02 01:45:21;;;;;;;4.48;3.50;;;;;;;16.23;71.46;98277.02;512904;1088;103434;-40
2021/07/02 01:55:30;;;;;;;6.95;3.30;;;;;;;16.18;71.61;98277.85;513077;1089;103213;-42
2021/07/02 02:05:37;;;;;;;2.97;2.77;;;;;;;16.09;71.72;98279.51;513148;1088;103492;-40
2021/07/02 02:15:44;;;;;;;3.70;2.87;;;;;;;16.00;71.97;98283.00;513180;1089;103114;-43
2021/07/02 02:25:51;;;;;;;3.67;3.27;;;;;;;15.89;72.22;98274.25;513002;1088;103396;-43
2021/07/02 02:35:58;;;;;;;5.83;3.23;;;;;;;15.76;72.41;98266.82;512990;1090;103186;-43
2021/07/02 02:46:06;;;;;;;3.50;3.20;;;;;;;15.66;72.41;98272.99;512906;1089;103420;-43
2021/07/02 02:56:13;;;;;;;11.15;4.38;;;;;;;15.60;72.55;98282.84;513092;1088;103119;-43
2021/07/02 03:06:21;;;;;;;4.10;3.70;;;;;;;15.62;72.83;98279.94;512820;1089;103153;-41
2021/07/02 03:16:30;;;;;;;6.60;5.68;;;;;;;16.20;72.70;98290.91;513089;1089;103054;-45
2021/07/02 03:26:37;;;;;;;5.50;4.40;;;;;;;18.48;71.11;98300.66;513002;1088;103510;-40
2021/07/02 03:36:44;;;;;;;;;;;;;;;18.14;70.05;98312.31;512940;1088;103112;-42
2021/07/02 03:46:51;;;;;;;4.77;3.53;;;;;;;20.04;69.56;98320.60;512951;1088;103667;-43
2021/07/02 04:17:30;;;;;;;3.50;3.20;;;;;;;21.19;64.70;98330.21;512959;1088;103148;-41
2021/07/02 04:27:38;;;;;;;4.37;3.47;;;;;;;19.36;65.33;98337.36;513740;1090;103121;-42
2021/07/02 04:37:50;;;;;;;4.90;3.80;;;;;;;18.74;66.19;98344.77;513500;1088;103153;-42
2021/07/02 04:47:57;;;;;;;5.05;3.75;;;;;;;19.18;66.65;98341.70;513254;1089;103607;-42
2021/07/02 04:58:06;;;;;;;3.50;3.20;;;;;;;18.67;66.50;98352.34;513323;1089;103511;-44
2021/07/02 05:08:15;;;;;;;3.90;3.40;;;;;;;18.09;67.13;98355.19;513110;1089;103533;-41
2021/07/02 05:18:22;;;;;;;4.37;3.97;;;;;;;17.77;67.88;98361.95;513158;1090;103125;-42
2021/07/02 05:28:33;;;;;;;4.35;3.20;;;;;;;18.00;68.50;98357.70;513047;1089;103443;-42
2021/07/02 05:38:41;;;;;;;5.60;3.20;;;;;;;18.70;68.06;98363.30;513089;1089;103490;-43
2021/07/02 05:58:56;;;;;;;5.73;4.60;;;;;;;20.43;65.85;98344.28;513155;1089;103183;-40
2021/07/02 06:09:02;;;;;;;;;;;;;;;20.53;64.92;98344.05;513351;1088;103133;-41
2021/07/02 06:19:10;;;;;;;6.53;5.93;;;;;;;20.22;63.78;98361.86;513292;1089;103371;-41
2021/07/02 06:29:17;;;;;;;7.13;5.10;;;;;;;20.34;65.09;98358.66;513095;1088;103162;-41
2021/07/02 06:39:24;;;;;;;5.68;4.08;;;;;;;22.13;63.67;98354.19;513284;1089;103597;-40
2021/07/02 06:49:33;;;;;;;6.33;5.83;;;;;;;21.83;60.61;98363.86;513212;1088;103463;-43
2021/07/02 06:59:41;;;;;;;6.73;4.77;;;;;;;21.54;59.94;98364.34;513065;1088;103162;-44
2021/07/02 07:09:49;;;;;;;6.67;6.07;;;;;;;22.25;59.86;98358.99;513062;1088;103113;-42
2021/07/02 07:19:56;;;;;;;5.05;4.40;;;;;;;22.57;58.12;98339.72;513064;1088;103456;-41
2021/07/02 07:30:04;;;;;;;4.97;2.73;;;;;;;22.55;55.56;98339.25;513212;1088;103079;-42
2021/07/02 07:40:14;;;;;;;4.97;3.50;;;;;;;22.90;56.24;98344.68;513061;1088;103116;-43
2021/07/02 08:00:30;;;;;;;3.10;2.73;;;;;;;23.84;52.56;98337.56;512990;1088;103419;-41
2021/07/02 08:10:37;;;;;;;4.77;3.10;;;;;;;23.54;51.92;98345.57;513094;1088;103190;-44
2021/07/02 08:20:45;;;;;;;4.63;3.63;;;;;;;23.28;52.92;98359.11;513070;1088;103501;-43
2021/07/02 08:30:53;;;;;;;4.07;2.97;;;;;;;23.94;52.17;98337.22;513041;1089;103113;-41
2021/07/02 08:41:03;;;;;;;3.03;2.70;;;;;;;24.15;50.75;98324.58;512939;1088;103536;-42
2021/07/02 08:51:12;;;;;;;4.60;2.80;;;;;;;24.35;51.32;98324.95;513057;1089;103149;-42
2021/07/02 09:01:36;;;;;;;7.67;3.20;;;;;;;24.16;51.61;98336.17;513037;1088;103303;-41
2021/07/02 09:11:43;;;;;;;3.30;3.00;;;;;;;25.08;51.34;98322.70;513168;1088;103533;-42
2021/07/02 09:21:49;;;;;;;;;;;;;;;25.27;50.85;98333.02;512902;1089;103138;-43
2021/07/02 09:32:01;;;;;;;41.50;4.40;;;;;;;24.86;50.06;98333.84;513739;1089;103419;-42
2021/07/02 09:42:09;;;;;;;3.57;2.77;;;;;;;23.89;51.00;98348.97;513141;1088;103175;-43
2021/07/02 09:52:17;;;;;;;3.27;2.97;;;;;;;24.52;50.25;98357.28;512941;1089;103149;-43
2021/07/02 10:02:25;;;;;;;5.60;3.00;;;;;;;24.03;50.18;98356.88;512993;1089;103556;-43
2021/07/02 10:12:33;;;;;;;10.50;7.00;;;;;;;23.80;50.56;98364.42;512899;1088;103124;-42
2021/07/02 10:22:41;;;;;;;3.25;2.10;;;;;;;24.33;49.94;98352.30;513046;1088;103100;-42
2021/07/02 10:32:48;;;;;;;2.80;2.30;;;;;;;24.54;50.45;98346.94;513173;1088;103124;-40
2021/07/02 10:43:06;;;;;;;2.80;2.60;;;;;;;24.75;48.93;98328.03;513020;1089;103143;-42
2021/07/02 10:53:27;;;;;;;2.30;2.03;;;;;;;24.66;49.22;98336.21;513214;1090;103131;-42
2021/07/02 11:03:35;;;;;;;3.37;1.73;;;;;;;24.68;48.76;98338.59;512875;1088;103099;-43
2021/07/02 11:14:17;;;;;;;2.03;1.93;;;;;;;24.74;49.88;98323.74;512819;1088;103396;-43
2021/07/02 11:24:50;;;;;;;3.70;2.70;;;;;;;24.62;48.04;98327.18;512986;1090;103454;-42
2021/07/02 11:35:23;;;;;;;3.73;2.30;;;;;;;25.23;48.43;98342.92;513030;1089;103464;-43
2021/07/02 11:45:41;;;;;;;2.20;1.70;;;;;;;25.22;46.72;98333.23;513219;1088;103505;-43
2021/07/02 11:55:57;;;;;;;3.70;1.70;;;;;;;25.20;46.99;98328.16;513018;1089;104504;-42
2021/07/02 12:06:06;;;;;;;4.47;2.60;;;;;;;25.38;46.83;98318.75;513044;1088;103124;-43
2021/07/02 12:16:15;;;;;;;5.87;2.23;;;;;;;25.02;46.45;98324.02;513154;1088;103463;-43
2021/07/02 12:36:35;;;;;;;3.63;2.30;;;;;;;24.63;46.75;98309.05;513324;1089;103416;-42
2021/07/02 12:46:42;;;;;;;4.10;2.17;;;;;;;24.06;47.22;98318.41;513019;1088;103323;-42
2021/07/02 12:56:50;;;;;;;4.93;2.33;;;;;;;24.31;47.14;98311.31;513018;1088;103511;-41
2021/07/02 13:06:57;;;;;;;4.47;2.20;;;;;;;24.71;46.87;98310.88;513114;1089;103128;-43
2021/07/02 13:17:05;;;;;;;3.17;1.50;;;;;;;24.26;45.45;98305.28;512858;1089;103124;-44
2021/07/02 13:27:18;;;;;;;4.03;2.30;;;;;;;24.12;46.67;98306.30;513066;1088;103157;-40
2021/07/02 13:37:32;;;;;;;8.10;2.20;;;;;;;24.55;47.47;98299.86;513090;1089;103675;-42
2021/07/02 13:47:40;;;;;;;3.67;2.30;;;;;;;24.61;47.87;98300.48;513207;1088;103133;-43
2021/07/02 13:57:48;;;;;;;3.40;1.73;;;;;;;24.85;45.59;98291.70;513220;1089;103112;-42
2021/07/02 14:07:56;;;;;;;2.03;1.80;;;;;;;24.49;46.47;98288.46;512999;1088;104189;-42
2021/07/02 14:18:04;;;;;;;3.30;2.10;;;;;;;24.84;46.80;98293.59;513045;1089;103103;-42
2021/07/02 14:28:11;;;;;;;1.73;1.40;;;;;;;24.68;46.23;98298.03;512973;1088;103133;-41
2021/07/02 14:38:20;;;;;;;2.93;1.47;;;;;;;24.14;46.95;98303.30;512963;1088;103520;-41
2021/07/02 14:48:29;;;;;;;1.77;1.50;;;;;;;23.69;48.00;98317.31;513138;1090;103493;-42
2021/07/02 14:58:36;;;;;;;4.67;1.90;;;;;;;23.45;48.81;98315.13;513009;1089;103176;-42
2021/07/02 15:08:44;;;;;;;8.80;4.93;;;;;;;23.13;49.88;98316.44;513051;1088;103102;-41
2021/07/02 15:18:52;;;;;;;9.17;5.30;;;;;;;22.72;50.75;98322.31;513071;1089;103120;-43
2021/07/02 15:28:57;;;;;;;;;;;;;;;22.59;51.41;98318.64;513070;1090;103143;-42
2021/07/02 15:39:05;;;;;;;4.77;3.03;;;;;;;22.54;51.87;98320.70;513306;1089;103102;-42
2021/07/02 15:49:13;;;;;;;3.20;2.83;;;;;;;22.23;52.42;98318.09;513463;1089;103151;-41
2021/07/02 15:59:23;;;;;;;5.30;3.20;;;;;;;22.07;52.76;98325.03;513346;1088;103129;-41
2021/07/02 16:09:33;;;;;;;3.67;2.97;;;;;;;21.61;54.06;98345.06;513543;1088;103147;-42
2021/07/02 16:19:40;;;;;;;7.27;3.90;;;;;;;21.36;54.40;98347.30;514133;1089;103142;-43
2021/07/02 16:29:46;;;;;;;;;;;;;;;21.18;54.46;98356.30;513460;1088;103446;-41
2021/07/02 16:39:54;;;;;;;3.70;3.40;;;;;;;21.15;55.02;98357.71;513250;1088;103172;-42
2021/07/02 16:50:02;;;;;;;7.83;6.08;;;;;;;20.92;55.71;98360.69;513192;1088;103437;-43
2021/07/02 17:00:11;;;;;;;7.97;5.00;;;;;;;20.50;56.69;98373.41;513463;1089;103148;-43
2021/07/02 17:10:21;;;;;;;7.90;6.43;;;;;;;20.15;57.78;98373.01;513816;1089;103125;-43
2021/07/02 17:20:29;;;;;;;12.05;6.95;;;;;;;20.03;58.82;98369.21;513214;1088;103720;-42
2021/07/02 17:40:44;;;;;;;9.73;8.33;;;;;;;19.90;59.10;98365.44;513210;1089;103420;-41
2021/07/02 17:50:49;;;;;;;18.85;15.15;;;;;;;19.80;59.43;98350.30;513064;1088;103102;-43
2021/07/02 18:00:57;;;;;;;41.23;19.50;;;;;;;19.66;59.91;98362.13;512880;1089;103155;-43
2021/07/02 18:11:06;;;;;;;8.27;6.80;;;;;;;19.58;59.84;98366.25;512947;1088;103120;-42
2021/07/02 18:21:28;;;;;;;6.87;6.17;;;;;;;19.53;60.57;98359.09;513067;1088;103403;-43
2021/07/02 18:31:37;;;;;;;9.57;7.50;;;;;;;19.31;60.36;98353.54;513081;1088;103156;-43
2021/07/02 18:51:52;;;;;;;9.17;7.40;;;;;;;18.96;61.28;98358.38;512811;1088;103113;-42
2021/07/02 19:12:06;;;;;;;7.97;7.07;;;;;;;18.72;61.99;98360.33;512905;1089;104231;-43
2021/07/02 19:22:12;;;;;;;10.40;8.17;;;;;;;18.54;62.08;98359.20;512865;1089;103122;-41
2021/07/02 19:32:20;;;;;;;11.07;7.50;;;;;;;18.33;63.06;98363.20;512811;1088;103169;-41
2021/07/02 19:42:28;;;;;;;8.63;7.30;;;;;;;18.05;63.53;98360.31;513181;1089;103157;-42
2021/07/02 19:52:36;;;;;;;11.10;7.63;;;;;;;17.92;63.87;98376.23;512975;1089;103148;-42
2021/07/02 20:02:43;;;;;;;;;;;;;;;17.75;64.57;98390.06;513095;1089;103141;-42
2021/07/02 20:12:50;;;;;;;8.63;7.30;;;;;;;17.67;64.78;98393.30;512924;1089;103121;-44
2021/07/02 20:22:57;;;;;;;11.73;9.60;;;;;;;17.51;64.99;98368.59;513307;1088;103488;-42
2021/07/02 20:33:05;;;;;;;12.03;10.33;;;;;;;17.29;65.31;98366.36;513118;1089;103105;-42
2021/07/02 20:43:13;;;;;;;9.40;8.45;;;;;;;17.06;65.82;98372.41;513074;1088;103105;-42
2021/07/02 20:53:23;;;;;;;9.27;8.27;;;;;;;16.86;66.11;98373.34;512941;1088;103502;-42
2021/07/02 21:03:31;;;;;;;9.77;8.07;;;;;;;16.76;66.89;98382.19;512917;1089;103460;-42
2021/07/02 21:13:38;;;;;;;12.33;7.95;;;;;;;16.73;67.11;98388.08;512739;1089;103147;-41
2021/07/02 21:23:45;;;;;;;9.93;7.17;;;;;;;16.69;67.40;98386.23;512849;1090;103119;-41
2021/07/02 21:33:53;;;;;;;10.97;8.53;;;;;;;16.48;67.87;98399.64;512867;1089;103397;-43
2021/07/02 21:44:01;;;;;;;7.10;5.95;;;;;;;16.38;68.46;98391.70;513103;1088;103121;-41
2021/07/02 21:54:08;;;;;;;7.20;6.07;;;;;;;16.37;68.61;98392.77;513003;1089;103424;-41
2021/07/02 22:04:16;;;;;;;8.87;6.23;;;;;;;16.34;69.07;98393.31;513289;1088;103106;-43
2021/07/02 22:14:24;;;;;;;6.30;5.17;;;;;;;16.22;69.33;98388.27;513041;1088;103100;-42
2021/07/02 22:24:32;;;;;;;6.17;4.87;;;;;;;16.22;69.54;98384.80;513156;1089;103119;-42
2021/07/02 22:34:39;;;;;;;7.83;5.63;;;;;;;16.16;69.71;98397.37;513164;1089;103118;-44
2021/07/02 22:44:46;;;;;;;7.95;5.40;;;;;;;16.11;70.44;98383.25;513055;1088;103099;-42
2021/07/02 22:54:54;;;;;;;8.80;5.90;;;;;;;16.20;70.76;98394.95;513088;1088;104721;-42
2021/07/02 23:05:01;;;;;;;7.37;6.07;;;;;;;16.22;70.67;98388.27;512922;1088;103078;-41
2021/07/02 23:15:11;;;;;;;7.33;6.58;;;;;;;16.10;71.19;98385.13;513060;1088;103810;-42
2021/07/02 23:25:18;;;;;;;9.70;7.10;;;;;;;16.12;71.08;98374.18;513124;1088;103483;-41
2021/07/02 23:35:26;;;;;;;8.40;7.53;;;;;;;16.13;71.47;98375.77;513172;1089;103119;-42
2021/07/02 23:45:34;;;;;;;9.43;8.00;;;;;;;16.13;71.61;98365.91;512930;1089;103523;-41
2021/07/02 23:55:41;;;;;;;13.97;7.97;;;;;;;16.09;71.83;98361.36;512942;1088;103589;-41
